Urb Campo Real, Puerto Rico
Current Conditions -  °F | °C
As of 7:53 PM on Wednesday 22 Oct 2014 (Local Time) from TJNR Reporting Station
Scattered Clouds Scattered Clouds  
Wind Chill: 81°   Ceiling: Unl
Heat Index: 86°   Visibility: 10mi
Dew Point: 74°   Wind: 3mph
Humidity: 79%   Direction: 80°E
Pressure: 29.96"   Gusts: NA
Location:  18.1853°N, 65.8667°W
Report Text: TJNR 222353Z AUTO 08003KT 10SM SCT024 27/23 A2996 RMK AO2 SLP144 T02720233 10317 20256 53013
Loading
Personal Weather Stations






























Interactive Weather Map
Tropical Storm Tracking
New forecast layout! Learn more

10-Day Weather Forecast

Advertisements
Track Severe Weather on mobile